createdAt,value
2018-06-27T00:01:17.143Z,14.73
2018-06-27T00:03:46.090Z,14.17
2018-06-27T00:06:14.693Z,13.10
2018-06-27T00:08:43.937Z,14.70
2018-06-27T00:11:12.181Z,13.40
2018-06-27T00:13:40.904Z,14.03
2018-06-27T00:16:09.527Z,13.50
2018-06-27T00:18:38.641Z,11.23
2018-06-27T00:21:07.849Z,14.00
2018-06-27T00:23:36.585Z,14.93
2018-06-27T00:26:05.301Z,12.90
2018-06-27T00:28:33.918Z,14.97
2018-06-27T00:31:02.561Z,15.43
2018-06-27T00:33:31.145Z,12.83
2018-06-27T00:35:59.750Z,13.10
2018-06-27T00:38:28.391Z,13.63
2018-06-27T00:40:57.016Z,12.63
2018-06-27T00:43:25.693Z,14.03
2018-06-27T00:45:54.303Z,14.83
2018-06-27T00:48:22.934Z,13.20
2018-06-27T00:50:51.516Z,14.43
2018-06-27T00:53:20.185Z,11.13
2018-06-27T00:55:48.785Z,12.37
2018-06-27T00:58:17.400Z,13.83
2018-06-27T01:00:45.979Z,14.30
2018-06-27T01:03:14.593Z,11.07
2018-06-27T01:05:43.462Z,16.37
2018-06-27T01:08:12.132Z,16.03
2018-06-27T01:10:40.861Z,11.00
2018-06-27T01:13:09.436Z,17.87
2018-06-27T01:15:38.059Z,17.90
2018-06-27T01:18:06.689Z,14.00
2018-06-27T01:20:35.285Z,17.27
2018-06-27T01:23:03.874Z,13.70
2018-06-27T01:25:32.587Z,12.33
2018-06-27T01:28:01.365Z,16.27
2018-06-27T01:30:29.981Z,20.13
2018-06-27T01:32:58.596Z,16.87
2018-06-27T01:35:27.221Z,14.80
2018-06-27T01:37:55.808Z,13.77
2018-06-27T01:40:24.788Z,17.30
2018-06-27T01:42:53.416Z,18.67
2018-06-27T01:45:22.013Z,13.23
2018-06-27T01:47:51.489Z,14.70
2018-06-27T01:50:20.168Z,14.03
2018-06-27T01:52:48.925Z,16.97
2018-06-27T01:55:17.529Z,16.67
2018-06-27T01:57:46.169Z,17.67
2018-06-27T02:00:14.806Z,14.70
2018-06-27T02:02:43.582Z,14.50
2018-06-27T02:05:12.262Z,16.20
2018-06-27T02:07:42.043Z,13.13
2018-06-27T02:10:12.462Z,13.17
2018-06-27T02:12:41.097Z,13.33
2018-06-27T02:15:09.736Z,16.07
2018-06-27T02:17:39.042Z,13.17
2018-06-27T02:20:08.136Z,17.90
2018-06-27T02:22:36.823Z,15.90
2018-06-27T02:25:05.513Z,13.63
2018-06-27T02:27:34.201Z,17.33
2018-06-27T02:30:02.429Z,12.87
2018-06-27T02:32:31.131Z,13.40
2018-06-27T02:34:59.716Z,14.63
2018-06-27T02:37:28.318Z,16.17
2018-06-27T02:39:56.974Z,14.57
2018-06-27T02:42:25.647Z,13.40
2018-06-27T02:44:54.253Z,14.23
2018-06-27T02:47:24.364Z,14.33
2018-06-27T02:49:53.290Z,16.60
2018-06-27T02:52:21.856Z,18.17
2018-06-27T02:54:50.494Z,14.23
2018-06-27T02:57:19.174Z,15.33
2018-06-27T02:59:47.839Z,14.70
2018-06-27T03:02:17.999Z,16.07
2018-06-27T03:04:47.757Z,18.43
2018-06-27T03:07:16.397Z,17.07
2018-06-27T03:09:45.027Z,17.50
2018-06-27T03:12:13.633Z,16.97
2018-06-27T03:14:42.774Z,14.23
2018-06-27T03:17:11.398Z,16.23
2018-06-27T03:19:40.471Z,13.70
2018-06-27T03:22:09.166Z,17.97
2018-06-27T03:24:37.790Z,16.03
2018-06-27T03:27:06.392Z,13.73
2018-06-27T03:29:35.814Z,16.60
2018-06-27T03:32:04.419Z,15.00
2018-06-27T03:34:33.037Z,15.77
2018-06-27T03:37:01.766Z,15.53
2018-06-27T03:39:30.438Z,14.03
2018-06-27T03:41:59.060Z,12.33
2018-06-27T03:44:27.712Z,14.83
2018-06-27T03:46:56.322Z,17.00
2018-06-27T03:49:25.519Z,15.20
2018-06-27T03:51:54.869Z,15.63
2018-06-27T03:54:23.468Z,16.33
2018-06-27T03:56:52.843Z,14.50
2018-06-27T03:59:21.451Z,15.87
2018-06-27T04:01:50.097Z,14.60
2018-06-27T04:04:18.734Z,14.17
2018-06-27T04:06:48.052Z,14.17
2018-06-27T04:09:16.655Z,15.47
2018-06-27T04:11:45.286Z,17.27
2018-06-27T04:14:13.899Z,16.40
2018-06-27T04:16:42.502Z,16.37
2018-06-27T04:19:11.146Z,15.13
2018-06-27T04:21:40.573Z,16.40
2018-06-27T04:24:09.947Z,17.80
2018-06-27T04:26:38.618Z,16.93
2018-06-27T04:29:07.510Z,15.57
2018-06-27T04:31:36.800Z,17.60
2018-06-27T04:34:05.443Z,20.77
2018-06-27T04:36:34.662Z,17.50
2018-06-27T04:39:03.981Z,19.63
2018-06-27T04:41:32.596Z,22.03
2018-06-27T04:44:01.840Z,22.37
2018-06-27T04:46:31.035Z,25.00
2018-06-27T04:48:59.637Z,20.57
2018-06-27T04:51:28.254Z,25.20
2018-06-27T04:53:57.168Z,26.60
2018-06-27T04:56:26.091Z,22.63
2018-06-27T04:58:54.677Z,21.93
2018-06-27T05:01:23.761Z,25.50
2018-06-27T05:03:52.407Z,25.33
2018-06-27T05:06:21.039Z,27.57
2018-06-27T05:08:49.660Z,28.03
2018-06-27T05:11:18.821Z,29.83
2018-06-27T05:13:47.582Z,27.53
2018-06-27T05:16:16.309Z,24.73
2018-06-27T05:18:45.324Z,28.50
2018-06-27T05:21:13.951Z,30.57
2018-06-27T05:23:42.566Z,23.30
2018-06-27T05:26:11.174Z,28.70
2018-06-27T05:28:39.782Z,37.13
2018-06-27T05:31:08.364Z,27.23
2018-06-27T05:33:37.495Z,31.57
2018-06-27T05:36:06.127Z,27.37
2018-06-27T05:38:34.710Z,27.33
2018-06-27T05:41:03.347Z,31.63
2018-06-27T05:43:31.977Z,35.40
2018-06-27T05:46:00.777Z,35.23
2018-06-27T05:48:29.408Z,27.73
2018-06-27T05:50:58.004Z,32.40
2018-06-27T05:53:26.606Z,31.63
2018-06-27T05:55:55.228Z,33.23
2018-06-27T05:58:24.452Z,30.60
2018-06-27T06:00:53.697Z,33.47
2018-06-27T06:03:22.410Z,33.10
2018-06-27T06:05:51.249Z,35.20
2018-06-27T06:08:19.870Z,31.97
2018-06-27T06:10:49.117Z,30.20
2018-06-27T06:13:18.013Z,28.97
2018-06-27T06:15:46.619Z,36.60
2018-06-27T06:18:15.227Z,33.40
2018-06-27T06:20:43.820Z,37.27
2018-06-27T06:23:12.434Z,38.67
2018-06-27T06:25:41.244Z,33.57
2018-06-27T06:28:09.869Z,35.10
2018-06-27T06:30:38.497Z,38.87
2018-06-27T06:33:07.141Z,32.90
2018-06-27T06:35:35.745Z,34.73
2018-06-27T06:38:04.659Z,30.97
2018-06-27T06:40:33.246Z,33.63
2018-06-27T06:43:01.837Z,40.50
2018-06-27T06:45:31.036Z,27.47
2018-06-27T06:47:59.641Z,25.33
2018-06-27T06:50:28.889Z,27.63
2018-06-27T06:52:58.239Z,31.70
2018-06-27T06:55:26.885Z,33.70
2018-06-27T06:57:56.142Z,35.13
2018-06-27T07:00:24.774Z,34.10
2018-06-27T07:02:53.430Z,26.33
2018-06-27T07:05:22.039Z,33.97
2018-06-27T07:07:50.629Z,31.30
2018-06-27T07:10:19.377Z,33.90
2018-06-27T07:12:48.020Z,24.70
2018-06-27T07:15:16.642Z,28.67
2018-06-27T07:17:45.763Z,26.30
2018-06-27T07:20:14.450Z,34.87
2018-06-27T07:22:43.067Z,31.63
2018-06-27T07:25:11.760Z,30.47
2018-06-27T07:27:40.342Z,26.27
2018-06-27T07:30:08.993Z,36.53
2018-06-27T07:32:37.300Z,29.17
2018-06-27T07:35:05.913Z,24.10
2018-06-27T07:37:35.188Z,26.10
2018-06-27T07:40:03.872Z,26.83
2018-06-27T07:42:32.465Z,31.83
2018-06-27T07:45:01.062Z,24.87
2018-06-27T07:47:29.641Z,25.23
2018-06-27T07:49:58.903Z,32.17
2018-06-27T07:52:27.475Z,24.47
2018-06-27T07:54:56.359Z,25.17
2018-06-27T07:57:24.980Z,26.97
2018-06-27T07:59:53.797Z,26.50
2018-06-27T08:02:22.782Z,34.17
2018-06-27T08:04:51.414Z,28.17
2018-06-27T08:07:20.474Z,24.57
2018-06-27T08:09:49.074Z,22.70
2018-06-27T08:12:18.648Z,27.10
2018-06-27T08:14:47.199Z,28.23
2018-06-27T08:17:15.790Z,25.80
2018-06-27T08:19:44.438Z,22.27
2018-06-27T08:22:13.025Z,25.93
2018-06-27T08:24:41.841Z,27.37
2018-06-27T08:27:10.512Z,19.57
2018-06-27T08:29:39.176Z,22.60
2018-06-27T08:32:07.800Z,19.20
2018-06-27T08:34:36.431Z,20.87
2018-06-27T08:37:05.237Z,19.47
2018-06-27T08:39:33.952Z,23.73
2018-06-27T08:42:02.569Z,26.03
2018-06-27T08:44:31.264Z,27.53
2018-06-27T08:46:59.911Z,16.90
2018-06-27T08:49:29.173Z,18.33
2018-06-27T08:51:57.795Z,21.50
2018-06-27T08:54:26.992Z,27.53
2018-06-27T08:56:56.811Z,26.30
2018-06-27T08:59:25.408Z,26.43
2018-06-27T09:01:54.032Z,30.23
2018-06-27T09:04:22.641Z,18.43
2018-06-27T09:06:51.326Z,17.23
2018-06-27T09:09:20.032Z,19.30
2018-06-27T09:11:48.628Z,23.77
2018-06-27T09:14:17.245Z,18.73
2018-06-27T09:16:45.842Z,22.47
2018-06-27T09:19:14.554Z,16.27
2018-06-27T09:21:43.202Z,22.80
2018-06-27T09:24:12.472Z,18.17
2018-06-27T09:26:41.070Z,18.93
2018-06-27T09:29:09.672Z,24.00
2018-06-27T09:31:38.272Z,16.30
2018-06-27T09:34:06.918Z,16.20
2018-06-27T09:36:35.580Z,14.50
2018-06-27T09:39:07.066Z,13.77
2018-06-27T09:41:35.679Z,16.10
2018-06-27T09:44:05.056Z,33.77
2018-06-27T09:46:33.945Z,16.23
2018-06-27T09:49:02.642Z,18.30
2018-06-27T09:51:31.239Z,15.87
2018-06-27T09:54:00.581Z,11.77
2018-06-27T09:56:29.239Z,17.63
2018-06-27T09:58:57.883Z,15.27
2018-06-27T10:01:28.479Z,14.67
2018-06-27T10:03:56.800Z,16.23
2018-06-27T10:06:25.410Z,13.77
2018-06-27T10:08:54.086Z,10.97
2018-06-27T10:11:23.016Z,13.23
2018-06-27T10:13:51.690Z,12.93
2018-06-27T10:16:20.271Z,16.87
2018-06-27T10:18:48.981Z,16.20
2018-06-27T10:21:17.593Z,15.30
2018-06-27T10:23:46.253Z,10.17
2018-06-27T10:26:15.427Z,12.37
2018-06-27T10:28:44.030Z,8.30
2018-06-27T10:31:12.673Z,9.20
2018-06-27T10:33:41.385Z,10.57
2018-06-27T10:36:10.008Z,15.90
2018-06-27T10:38:38.590Z,14.47
2018-06-27T10:41:07.248Z,10.37
2018-06-27T10:43:35.860Z,11.87
2018-06-27T10:46:04.624Z,8.67
2018-06-27T10:48:33.208Z,7.83
2018-06-27T10:51:01.874Z,5.27
2018-06-27T10:53:30.494Z,9.53
2018-06-27T10:55:59.890Z,9.07
2018-06-27T10:58:28.502Z,8.27
2018-06-27T11:00:58.867Z,6.97
2018-06-27T11:03:27.486Z,5.53
2018-06-27T11:05:56.709Z,8.00
2018-06-27T11:08:25.317Z,9.80
2018-06-27T11:10:54.016Z,8.97
2018-06-27T11:13:22.675Z,10.97
2018-06-27T11:15:51.377Z,7.87
2018-06-27T11:18:20.014Z,15.50
2018-06-27T11:20:49.181Z,7.00
2018-06-27T11:23:17.770Z,8.73
2018-06-27T11:25:46.414Z,8.73
2018-06-27T11:28:15.103Z,9.30
2018-06-27T11:30:43.748Z,11.33
2018-06-27T11:33:12.370Z,6.70
2018-06-27T11:35:40.981Z,5.60
2018-06-27T11:38:09.610Z,7.80
2018-06-27T11:40:38.552Z,4.13
2018-06-27T11:43:07.239Z,6.27
2018-06-27T11:45:35.831Z,5.33
2018-06-27T11:48:04.940Z,4.20
2018-06-27T11:50:33.565Z,8.13
2018-06-27T11:53:02.202Z,9.70
2018-06-27T11:55:30.878Z,9.53
2018-06-27T11:57:59.745Z,10.10
2018-06-27T12:00:28.405Z,5.30
2018-06-27T12:02:57.945Z,5.80
2018-06-27T12:05:26.531Z,6.73
2018-06-27T12:07:55.137Z,3.27
2018-06-27T12:10:23.722Z,4.20
2018-06-27T12:12:52.431Z,15.57
2018-06-27T12:15:21.026Z,5.70
2018-06-27T12:17:49.637Z,4.43
2018-06-27T12:20:18.224Z,3.83
2018-06-27T12:22:47.069Z,7.90
2018-06-27T12:25:15.718Z,2.93
2018-06-27T12:27:45.617Z,5.07
2018-06-27T12:30:19.766Z,5.07
2018-06-27T12:32:50.244Z,4.97
2018-06-27T12:35:19.925Z,3.97
2018-06-27T12:37:49.498Z,4.17
2018-06-27T12:40:18.217Z,5.83
2018-06-27T12:42:47.641Z,3.63
2018-06-27T12:45:16.300Z,5.50
2018-06-27T12:47:44.951Z,6.17
2018-06-27T12:50:17.809Z,8.47
2018-06-27T12:52:46.653Z,10.37
2018-06-27T12:55:15.240Z,3.87
2018-06-27T12:57:43.845Z,7.40
2018-06-27T13:00:13.134Z,4.07
2018-06-27T13:02:41.740Z,8.10
2018-06-27T13:05:10.826Z,3.80
2018-06-27T13:07:39.431Z,2.00
2018-06-27T13:10:08.932Z,5.10
2018-06-27T13:12:37.936Z,5.00
2018-06-27T13:15:07.319Z,4.33
2018-06-27T13:17:36.138Z,3.60
2018-06-27T13:20:05.350Z,5.40
2018-06-27T13:22:35.598Z,3.70
2018-06-27T13:25:04.256Z,15.63
2018-06-27T13:27:32.914Z,3.07
2018-06-27T13:30:01.550Z,5.50
2018-06-27T13:32:30.879Z,2.73
2018-06-27T13:34:59.640Z,19.97
2018-06-27T13:37:28.689Z,4.33
2018-06-27T13:39:57.286Z,2.57
2018-06-27T13:42:25.884Z,3.83
2018-06-27T13:44:54.572Z,3.37
2018-06-27T13:47:23.258Z,2.83
2018-06-27T13:49:51.878Z,8.17
2018-06-27T13:52:20.502Z,4.00
2018-06-27T13:54:55.021Z,2.90
2018-06-27T13:57:23.966Z,3.47
2018-06-27T13:59:52.760Z,7.90
2018-06-27T14:02:21.642Z,2.60
2018-06-27T14:04:50.639Z,6.17
2018-06-27T14:07:19.345Z,2.53
2018-06-27T14:09:47.947Z,3.47
2018-06-27T14:12:17.099Z,5.17
2018-06-27T14:14:45.710Z,2.63
2018-06-27T14:17:14.892Z,19.43
2018-06-27T14:19:43.642Z,6.30
2018-06-27T14:22:12.288Z,2.90
2018-06-27T14:24:40.860Z,3.50
2018-06-27T14:27:09.653Z,5.90
2018-06-27T14:29:38.290Z,3.97
2018-06-27T14:32:06.927Z,5.63
2018-06-27T14:34:35.526Z,2.83
2018-06-27T14:37:04.870Z,2.90
2018-06-27T14:39:34.598Z,4.67
2018-06-27T14:42:03.211Z,2.37
2018-06-27T14:44:32.268Z,6.03
2018-06-27T14:47:00.921Z,3.73
2018-06-27T14:49:30.600Z,2.73
2018-06-27T14:51:59.316Z,4.50
2018-06-27T14:54:28.085Z,5.73
2018-06-27T14:56:56.689Z,2.30
2018-06-27T14:59:25.433Z,5.70
2018-06-27T15:01:55.033Z,4.43
2018-06-27T15:04:24.340Z,3.13
2018-06-27T15:06:53.882Z,7.20
2018-06-27T15:09:23.082Z,4.33
2018-06-27T15:11:51.670Z,4.90
2018-06-27T15:14:20.339Z,6.30
2018-06-27T15:16:49.689Z,7.43
2018-06-27T15:19:18.277Z,4.93
2018-06-27T15:21:46.849Z,4.83
2018-06-27T15:24:15.552Z,2.73
2018-06-27T15:26:44.180Z,3.17
2018-06-27T15:29:12.789Z,6.00
2018-06-27T15:31:41.517Z,4.97
2018-06-27T15:34:10.261Z,5.03
2018-06-27T15:36:39.327Z,3.87
2018-06-27T15:39:09.291Z,6.57
2018-06-27T15:41:37.936Z,5.30
2018-06-27T15:44:07.189Z,2.83
2018-06-27T15:46:36.346Z,3.43
2018-06-27T15:49:06.754Z,7.87
2018-06-27T15:51:35.386Z,5.63
2018-06-27T15:54:04.074Z,3.73
2018-06-27T15:56:32.709Z,3.97
2018-06-27T15:59:02.165Z,4.70
2018-06-27T16:01:31.370Z,3.40
2018-06-27T16:04:00.229Z,4.00
2018-06-27T16:06:30.092Z,3.53
2018-06-27T16:08:58.689Z,3.63
2018-06-27T16:11:27.411Z,2.27
2018-06-27T16:13:56.497Z,3.47
2018-06-27T16:16:25.923Z,2.93
2018-06-27T16:18:55.069Z,2.90
2018-06-27T16:21:23.800Z,4.27
2018-06-27T16:23:53.229Z,2.37
2018-06-27T16:26:22.785Z,5.20
2018-06-27T16:28:51.428Z,5.30
2018-06-27T16:31:20.034Z,9.43
2018-06-27T16:33:50.338Z,5.73
2018-06-27T16:36:18.998Z,3.87
2018-06-27T16:38:47.592Z,2.97
2018-06-27T16:41:16.178Z,3.77
2018-06-27T16:43:44.781Z,4.50
2018-06-27T16:46:13.439Z,3.63
2018-06-27T16:48:42.089Z,2.93
2018-06-27T16:51:10.892Z,2.33
2018-06-27T16:53:39.479Z,4.03
2018-06-27T16:56:08.688Z,6.17
2018-06-27T16:58:37.299Z,2.90
2018-06-27T17:01:06.420Z,5.07
2018-06-27T17:03:34.695Z,2.10
2018-06-27T17:06:03.379Z,3.97
2018-06-27T17:08:31.981Z,5.03
2018-06-27T17:11:00.569Z,3.37
2018-06-27T17:13:29.162Z,7.57
2018-06-27T17:15:57.761Z,3.40
2018-06-27T17:18:26.369Z,1.60
2018-06-27T17:21:12.861Z,2.57
2018-06-27T17:23:42.379Z,2.27
2018-06-27T17:26:10.976Z,1.07
2018-06-27T17:28:39.567Z,3.00
2018-06-27T17:31:08.499Z,1.53
2018-06-27T17:33:37.106Z,8.17
2018-06-27T17:36:05.771Z,7.03
2018-06-27T17:38:34.562Z,1.13
2018-06-27T17:41:03.177Z,1.60
2018-06-27T17:43:31.786Z,3.83
2018-06-27T17:46:00.394Z,8.37
2018-06-27T17:48:29.742Z,2.27
2018-06-27T17:50:58.435Z,2.90
2018-06-27T17:53:27.184Z,2.60
2018-06-27T17:55:55.806Z,2.33
2018-06-27T17:58:24.070Z,1.07
2018-06-27T18:00:52.825Z,2.30
2018-06-27T18:03:21.733Z,1.30
2018-06-27T18:05:51.090Z,1.13
2018-06-27T18:08:20.714Z,1.63
2018-06-27T18:10:49.609Z,11.07
2018-06-27T18:13:18.789Z,2.27
2018-06-27T18:15:48.129Z,1.10
2018-06-27T18:18:16.854Z,0.87
2018-06-27T18:20:46.118Z,1.13
2018-06-27T18:23:14.750Z,1.10
2018-06-27T18:25:43.371Z,1.37
2018-06-27T18:28:12.058Z,1.37
2018-06-27T18:30:40.746Z,1.73
2018-06-27T18:33:09.387Z,1.60
2018-06-27T18:35:38.493Z,1.00
2018-06-27T18:38:07.890Z,2.90
2018-06-27T18:40:36.714Z,2.67
2018-06-27T18:43:05.384Z,2.33
2018-06-27T18:45:34.278Z,2.80
2018-06-27T18:48:03.633Z,2.60
2018-06-27T18:50:32.268Z,1.00
2018-06-27T18:53:00.882Z,0.90
2018-06-27T18:55:30.500Z,1.60
2018-06-27T18:57:59.463Z,1.60
2018-06-27T19:00:28.214Z,6.03
2018-06-27T19:02:57.189Z,1.30
2018-06-27T19:05:25.898Z,3.40
2018-06-27T19:07:54.530Z,1.73
2018-06-27T19:10:23.427Z,1.63
2018-06-27T19:12:52.845Z,2.13
2018-06-27T19:15:22.094Z,3.23
2018-06-27T19:17:52.771Z,1.67
2018-06-27T19:20:21.441Z,1.33
2018-06-27T19:22:50.085Z,1.70
2018-06-27T19:25:20.244Z,2.40
2018-06-27T19:27:49.002Z,1.57
2018-06-27T19:30:18.285Z,2.80
2018-06-27T19:32:47.028Z,6.97
2018-06-27T19:35:16.818Z,1.63
2018-06-27T19:37:45.079Z,2.97
2018-06-27T19:40:14.300Z,2.47
2018-06-27T19:42:43.374Z,1.30
2018-06-27T19:45:12.003Z,13.40
2018-06-27T19:47:40.647Z,1.63
2018-06-27T19:50:09.931Z,1.30
2018-06-27T19:52:38.626Z,1.43
2018-06-27T19:55:07.438Z,1.77
2018-06-27T19:57:36.066Z,1.23
2018-06-27T20:00:05.669Z,4.60
2018-06-27T20:02:34.268Z,1.97
2018-06-27T20:05:03.092Z,3.43
2018-06-27T20:07:31.787Z,3.67
2018-06-27T20:10:00.377Z,1.10
2018-06-27T20:12:29.852Z,4.20
2018-06-27T20:14:58.539Z,1.13
2018-06-27T20:17:27.187Z,1.00
2018-06-27T20:19:55.460Z,3.30
2018-06-27T20:22:24.389Z,4.57
2018-06-27T20:24:52.957Z,5.07
2018-06-27T20:27:21.365Z,4.00
2018-06-27T20:29:50.013Z,1.40
2018-06-27T20:32:18.732Z,1.40
2018-06-27T20:34:47.930Z,2.90
2018-06-27T20:37:16.851Z,2.23
2018-06-27T20:39:45.486Z,2.07
2018-06-27T20:42:14.141Z,3.03
2018-06-27T20:44:42.962Z,1.40
2018-06-27T20:47:11.667Z,1.53
2018-06-27T20:49:40.238Z,2.13
2018-06-27T20:52:08.857Z,6.97
2018-06-27T20:54:37.510Z,8.57
2018-06-27T20:57:06.258Z,7.97
2018-06-27T20:59:34.879Z,8.83
2018-06-27T21:02:04.331Z,4.50
2018-06-27T21:04:32.578Z,3.63
2018-06-27T21:07:01.183Z,2.73
2018-06-27T21:09:30.420Z,2.37
2018-06-27T21:12:01.018Z,5.30
2018-06-27T21:14:29.624Z,2.53
2018-06-27T21:16:57.859Z,1.97
2018-06-27T21:19:26.519Z,2.00
2018-06-27T21:21:55.142Z,4.13
2018-06-27T21:24:23.746Z,2.07
2018-06-27T21:26:52.662Z,1.70
2018-06-27T21:29:20.920Z,2.37
2018-06-27T21:31:49.564Z,2.40
2018-06-27T21:34:18.866Z,2.73
2018-06-27T21:36:47.624Z,3.27
2018-06-27T21:39:15.905Z,4.93
2018-06-27T21:41:44.478Z,2.13
2018-06-27T21:44:13.168Z,2.03
2018-06-27T21:46:41.764Z,3.43
2018-06-27T21:49:10.497Z,3.57
2018-06-27T21:51:39.266Z,1.67
2018-06-27T21:54:08.807Z,1.83
2018-06-27T21:56:37.460Z,2.27
2018-06-27T21:59:06.135Z,2.00
2018-06-27T22:01:35.383Z,2.60
2018-06-27T22:04:04.026Z,2.37
2018-06-27T22:06:32.619Z,4.10
2018-06-27T22:09:01.457Z,1.90
2018-06-27T22:11:30.268Z,1.83
2018-06-27T22:13:59.170Z,1.90
2018-06-27T22:16:27.814Z,2.43
2018-06-27T22:18:56.393Z,3.60
2018-06-27T22:21:25.037Z,1.80
2018-06-27T22:23:54.602Z,2.47
2018-06-27T22:26:24.059Z,3.13
2018-06-27T22:28:52.703Z,1.90
2018-06-27T22:31:21.360Z,2.67
2018-06-27T22:33:49.995Z,2.23
2018-06-27T22:36:18.694Z,2.63
2018-06-27T22:38:47.295Z,2.57
2018-06-27T22:41:15.968Z,2.27
2018-06-27T22:43:44.580Z,2.00
2018-06-27T22:46:13.167Z,3.50
2018-06-27T22:48:41.805Z,3.40
2018-06-27T22:51:10.424Z,3.33
2018-06-27T22:53:39.072Z,2.13
2018-06-27T22:56:08.269Z,2.43
2018-06-27T22:58:36.900Z,4.07
2018-06-27T23:01:05.557Z,3.03
2018-06-27T23:03:34.120Z,3.07
2018-06-27T23:06:02.721Z,3.07
2018-06-27T23:08:31.324Z,2.03
2018-06-27T23:10:59.920Z,2.43
2018-06-27T23:13:28.546Z,1.97
2018-06-27T23:15:57.556Z,2.73
2018-06-27T23:18:26.181Z,3.47
2018-06-27T23:20:54.758Z,4.73
2018-06-27T23:23:23.946Z,3.67
2018-06-27T23:25:52.566Z,3.53
2018-06-27T23:28:21.140Z,3.67
2018-06-27T23:30:49.792Z,3.63
2018-06-27T23:33:18.929Z,3.67
2018-06-27T23:35:47.584Z,4.20
2018-06-27T23:38:16.221Z,2.40
2018-06-27T23:40:44.923Z,5.20
2018-06-27T23:43:13.524Z,2.87
2018-06-27T23:45:42.130Z,4.43
2018-06-27T23:48:10.712Z,3.03
2018-06-27T23:50:39.319Z,3.50
2018-06-27T23:53:07.959Z,2.83
2018-06-27T23:55:36.702Z,3.50
2018-06-27T23:58:05.973Z,3.07
